Latest Weather Observations for Low Isles

IDQ60801

Issued at 8:35 pm EST Tuesday 29 July 2014 (issued every 30 minutes, with the page automatically refreshed every 10 minutes)

About weather observations | Map of weather stations | Latest weather observations for QLD | Other Formats
Station Details ID: 031037 Name: LOW ISLES LIGHTHOUSE Lat: -16.38 Lon: 145.56 Height: 2.9 m
Data from the previous 72 hours. | See also: Recent months at Low Isles
Date/Time
EST
Temp
°C
App
Temp
°C
Dew
Point
Rel
Hum
%
Delta-T
°C
Wind Press
QNH
hPa
Press
MSL
hPa
Rain
since 9 am
mm
Dir
 
Spd
km/h
Gust
km/h
Spd
kts
Gust
kts
29/08:30pm 22.7 19.5 18.7 78 2.5 SSE 33 37 18 20 1019.1 - 0.0
29/08:00pm 22.8 20.2 18.6 77 2.6 SE 30 33 16 18 1019.0 - 0.0
29/07:30pm 22.8 20.6 18.6 77 2.6 SE 28 32 15 17 1018.8 - 0.0
29/07:00pm 22.9 20.9 18.4 76 2.8 SSE 26 30 14 16 1018.6 - 0.0
29/06:30pm 22.8 20.5 17.7 73 3.2 SE 26 30 14 16 1018.4 - 0.0
29/06:00pm 22.9 20.6 17.6 72 3.3 SE 26 30 14 16 1018.1 1018.0 0.0
29/05:30pm 22.9 20.6 17.6 72 3.3 SE 26 33 14 18 1018.0 - 0.0
29/05:00pm 23.0 19.9 16.5 67 4.0 SE 28 32 15 17 1017.8 - 0.0
29/04:30pm 24.0 21.4 17.7 68 3.9 SE 28 33 15 18 1017.6 - 0.0
29/04:00pm 24.5 21.1 16.7 61 4.8 SE 30 35 16 19 1017.5 - 0.0
29/03:30pm 25.0 21.7 17.0 61 5.0 SE 30 37 16 20 1017.6 - 0.0
29/03:00pm 25.1 21.8 17.0 60 5.0 ESE 30 37 16 20 1017.8 1017.7 0.0
29/02:30pm 25.4 22.3 17.6 62 4.9 ESE 30 35 16 19 1018.0 - 0.0
29/02:00pm 25.0 21.4 17.7 64 4.6 SE 33 39 18 21 1018.4 - 0.0
29/01:30pm 25.0 22.2 18.2 66 4.3 SE 30 35 16 19 1018.9 - 0.0
29/01:00pm 24.6 21.2 17.6 65 4.4 SE 32 37 17 20 1019.1 - 0.0
29/12:30pm 24.6 21.2 17.8 66 4.3 SE 32 39 17 21 1019.5 - 0.0
29/12:00pm 24.4 21.1 17.9 67 4.1 SE 32 35 17 19 1019.9 1019.8 0.0
29/11:30am 24.3 20.8 17.8 67 4.1 SE 33 39 18 21 1020.2 - 0.0
29/11:00am 23.8 20.1 18.4 72 3.4 SE 35 39 19 21 1020.4 - 0.0
29/10:30am 23.3 19.6 18.4 74 3.1 SE 35 39 19 21 1020.7 - 0.0
29/10:00am 23.1 19.5 18.6 76 2.8 SE 35 39 19 21 1020.8 - 0.0
29/09:30am 22.8 19.8 19.0 79 2.4 SSE 33 37 18 20 1020.8 - 0.0
29/09:00am 22.7 20.4 19.3 81 2.2 SSE 30 35 16 19 1020.6 1020.5 2.0
29/08:30am 22.5 19.8 19.3 82 2.0 SSE 32 35 17 19 1020.3 - 2.0
29/08:00am 22.2 19.3 18.8 81 2.1 SSE 32 37 17 20 1020.0 - 2.0
29/07:30am 22.2 19.4 19.0 82 2.0 SSE 32 35 17 19 1019.7 - 2.0
29/07:00am 22.0 19.5 18.8 82 2.0 SSE 30 37 16 20 1019.3 - 2.0
29/06:30am 22.0 19.2 19.0 83 1.9 SSE 32 37 17 20 1018.9 - 2.0
29/06:00am 22.2 20.3 19.4 84 1.8 SSE 28 32 15 17 1018.7 1018.6 2.0
29/05:30am 22.0 19.5 18.8 82 2.0 SSE 30 33 16 18 1018.4 - 2.0
29/05:00am 22.1 20.0 18.9 82 2.0 SSE 28 32 15 17 1018.2 - 2.0
29/04:30am 22.2 19.8 19.0 82 2.0 SSE 30 33 16 18 1017.9 - 2.0
29/04:00am 22.3 20.2 18.9 81 2.1 SSE 28 32 15 17 1017.9 - 2.0
29/03:30am 22.2 19.7 18.8 81 2.1 SSE 30 33 16 18 1018.1 - 2.0
29/03:00am 22.3 19.4 18.9 81 2.1 SSE 32 35 17 19 1018.1 1018.0 2.0
29/02:30am 22.5 20.4 18.9 80 2.3 SSE 28 32 15 17 1018.2 - 2.0
29/02:00am 22.6 20.7 19.4 82 2.0 SSE 28 32 15 17 1018.5 - 2.0
29/01:30am 22.5 20.1 19.1 81 2.2 SSE 30 32 16 17 1018.8 - 2.0
29/01:00am 22.5 20.9 19.1 81 2.2 SSE 26 30 14 16 1019.1 - 2.0
29/12:30am 22.5 20.7 19.5 83 1.9 SSE 28 32 15 17 1019.3 - 2.0
29/12:00am 22.5 20.8 19.7 84 1.8 SSE 28 32 15 17 1019.3 1019.2 2.0
 
Date/Time
EST
Temp
°C
App
Temp
°C
Dew
Point
Rel
Hum
%
Delta-T
°C
Wind Press
QNH
hPa
Press
MSL
hPa
Rain
since 9 am
mm
Dir
 
Spd
km/h
Gust
km/h
Spd
kts
Gust
kts
28/11:30pm 22.5 20.5 20.0 86 1.6 SSE 30 35 16 19 1019.3 - 2.0
28/11:00pm 22.3 20.1 19.5 84 1.8 SSE 30 33 16 18 1019.4 - 2.0
28/10:30pm 22.4 20.6 19.6 84 1.8 SSE 28 32 15 17 1019.4 - 2.0
28/10:00pm 22.5 20.4 19.7 84 1.8 SSE 30 33 16 18 1019.5 - 2.0
28/09:30pm 22.4 20.7 19.9 86 1.6 SSE 28 32 15 17 1019.5 - 2.0
28/09:00pm 22.3 20.2 19.8 86 1.6 SSE 30 32 16 17 1019.4 1019.3 2.0
28/08:30pm 22.4 20.7 19.8 85 1.7 SSE 28 32 15 17 1019.2 - 2.0
28/08:00pm 22.6 20.9 19.8 84 1.8 SSE 28 32 15 17 1019.1 - 2.0
28/07:30pm 22.5 20.7 19.5 83 1.9 SSE 28 32 15 17 1018.9 - 2.0
28/07:00pm 22.4 20.5 19.4 83 1.9 SSE 28 32 15 17 1018.6 - 2.0
28/06:30pm 22.5 21.4 19.5 83 1.9 SSE 24 28 13 15 1018.2 - 2.0
28/06:00pm 22.9 22.0 19.9 83 1.9 SSE 24 28 13 15 1017.9 1017.8 2.0
28/05:30pm 23.0 22.1 19.8 82 2.1 SE 24 28 13 15 1017.7 - 2.0
28/05:00pm 23.0 22.1 19.8 82 2.1 SSE 24 28 13 15 1017.6 - 2.0
28/04:30pm 22.9 21.0 19.3 80 2.3 SSE 28 32 15 17 1017.7 - 2.0
28/04:00pm 23.3 21.6 19.9 81 2.2 SSE 28 32 15 17 1017.7 - 2.0
28/03:30pm 23.4 21.5 20.1 82 2.1 SSE 30 33 16 18 1017.6 - 2.0
28/03:00pm 23.4 21.3 20.5 84 1.9 SSE 32 35 17 19 1017.7 1017.6 2.0
28/02:30pm 22.2 20.4 20.3 89 1.2 SSE 30 35 16 19 1018.0 - 2.0
28/02:00pm 22.8 21.0 20.3 86 1.6 SSE 30 35 16 19 1018.2 - 1.8
28/01:30pm 22.8 20.5 20.1 85 1.7 SSE 32 35 17 19 1018.5 - 1.8
28/01:00pm 22.9 20.8 20.6 87 1.5 SSE 32 35 17 19 1019.0 - 1.8
28/12:30pm 22.7 20.6 20.6 88 1.4 SSE 32 39 17 21 1019.3 - 1.8
28/12:00pm 22.6 21.2 20.5 88 1.4 SSE 28 32 15 17 1019.6 1019.5 1.8
28/11:30am 22.3 22.5 20.6 90 1.1 SE 20 26 11 14 1020.0 - 1.8
28/11:00am 22.4 21.3 19.4 83 1.9 SE 24 28 13 15 1020.2 - 0.8
28/10:30am 22.0 19.6 19.9 88 1.3 SE 32 39 17 21 1020.5 - 0.8
28/10:00am 22.2 19.8 20.3 89 1.2 SSE 33 41 18 22 1020.5 - 0.8
28/09:30am 21.5 18.9 20.0 91 1.0 SSE 33 39 18 21 1020.5 - 0.8
28/09:00am 21.9 19.1 20.2 90 1.1 SSE 35 43 19 23 1020.4 1020.3 2.6
28/08:30am 21.8 20.2 20.1 90 1.1 SSE 28 35 15 19 1020.0 - 2.6
28/08:00am 22.3 19.5 20.2 88 1.4 SSE 35 39 19 21 1019.5 - 2.6
28/07:30am 22.0 19.5 20.1 89 1.2 SSE 33 41 18 22 1019.2 - 2.2
28/07:00am 22.5 20.1 20.0 86 1.6 SSE 32 37 17 20 1018.8 - 2.0
28/06:30am 22.5 19.1 19.9 85 1.7 SSE 37 43 20 23 1018.4 - 2.0
28/06:29am 22.5 19.1 19.9 85 1.7 SSE 37 43 20 23 1018.4 - 2.0
28/06:00am 22.6 20.7 19.4 82 2.0 ESE 28 35 15 19 1018.0 1017.9 2.0
28/05:30am 22.7 20.9 19.5 82 2.0 SE 28 35 15 19 1017.9 - 2.0
28/05:00am 22.6 20.0 19.4 82 2.0 SE 32 39 17 21 1017.9 - 2.0
28/04:30am 22.3 20.1 19.5 84 1.8 ESE 30 37 16 20 1017.8 - 2.0
28/04:00am 22.2 19.9 20.1 88 1.4 SSE 32 37 17 20 1017.8 - 2.0
28/03:30am 22.4 20.9 20.3 88 1.4 SSE 28 33 15 18 1017.6 - 2.0
28/03:00am 22.5 21.1 20.4 88 1.4 SSE 28 32 15 17 1017.9 1017.8 2.0
28/02:30am 22.1 20.9 20.0 88 1.3 SSE 26 32 14 17 1018.3 - 2.0
28/02:00am 22.3 21.4 19.8 86 1.6 SSE 24 28 13 15 1018.5 - 2.0
28/01:30am 22.6 21.7 19.8 84 1.8 SSE 24 30 13 16 1018.7 - 2.0
28/01:00am 23.1 20.9 18.8 77 2.7 SE 28 33 15 18 1019.0 - 2.0
28/12:30am 23.1 20.4 18.4 75 3.0 ESE 30 35 16 19 1019.4 - 2.0
28/12:00am 23.0 20.7 18.5 76 2.8 ESE 28 33 15 18 1019.8 1019.7 2.0
 
Date/Time
EST
Temp
°C
App
Temp
°C
Dew
Point
Rel
Hum
%
Delta-T
°C
Wind Press
QNH
hPa
Press
MSL
hPa
Rain
since 9 am
mm
Dir
 
Spd
km/h
Gust
km/h
Spd
kts
Gust
kts
27/11:30pm 23.0 20.6 18.3 75 2.9 ESE 28 35 15 19 1020.0 - 2.0
27/11:00pm 22.9 20.5 18.2 75 2.9 ESE 28 35 15 19 1020.3 - 2.0
27/10:30pm 22.5 21.8 20.2 87 1.5 SE 24 28 13 15 1020.6 - 2.0
27/10:00pm 22.6 21.2 20.5 88 1.4 SE 28 35 15 19 1020.8 - 2.0
27/09:30pm 22.4 21.0 20.5 89 1.2 SSE 28 32 15 17 1020.9 - 2.0
27/09:00pm 22.3 21.0 20.6 90 1.1 SSE 28 32 15 17 1020.7 1020.6 2.0
27/08:30pm 22.1 20.1 20.0 88 1.3 SSE 30 33 16 18 1020.4 - 2.0
27/08:00pm 22.2 19.8 19.9 87 1.5 SSE 32 35 17 19 1020.1 - 2.0
27/07:30pm 22.6 19.6 19.9 85 1.7 SE 35 41 19 22 1019.7 - 2.0
27/07:00pm 22.8 21.6 20.1 85 1.7 SE 26 30 14 16 1019.3 - 2.0
27/06:30pm 22.8 21.6 20.1 85 1.7 SSE 26 30 14 16 1019.1 - 2.0
27/06:00pm 22.9 21.5 20.4 86 1.6 SSE 28 33 15 18 1018.7 1018.6 2.0
27/05:30pm 23.4 22.6 20.1 82 2.1 SE 24 30 13 16 1018.4 - 2.0
27/05:00pm 23.9 21.7 19.6 77 2.8 SE 30 39 16 21 1018.2 - 2.0
27/04:30pm 24.4 22.0 19.2 73 3.3 SE 30 35 16 19 1018.1 - 2.0
27/04:00pm 24.7 22.3 19.1 71 3.6 SE 30 35 16 19 1017.8 - 2.0
27/03:30pm 24.8 22.2 19.4 72 3.5 SE 32 37 17 20 1017.8 - 2.0
27/03:00pm 25.0 22.4 19.4 71 3.6 SE 32 37 17 20 1017.9 1017.8 2.0
27/02:30pm 24.6 21.7 18.8 70 3.7 SE 32 37 17 20 1018.0 - 2.0
27/02:00pm 24.6 22.1 19.7 74 3.2 SE 32 39 17 21 1018.2 - 2.0
27/01:30pm 23.5 21.7 21.2 87 1.5 SSE 32 33 17 18 1018.5 - 2.0
27/01:00pm 22.7 20.1 20.6 88 1.4 SE 35 41 19 22 1018.9 - 2.0
27/12:30pm 23.6 22.2 20.5 83 2.0 SSE 28 32 15 17 1019.3 - 1.8
27/12:00pm 23.3 21.8 20.2 83 2.0 SSE 28 30 15 16 1019.7 1019.6 1.8
27/11:30am 23.0 21.1 20.1 84 1.9 SSE 30 35 16 19 1020.0 - 1.8
27/11:00am 22.4 19.6 20.3 88 1.4 SSE 35 41 19 22 1020.1 - 1.8
27/10:30am 21.8 20.1 20.6 93 0.8 SE 30 35 16 19 1020.3 - 1.8
27/10:00am 21.9 19.4 20.2 90 1.1 SSE 33 37 18 20 1020.5 - 0.0
27/09:30am 22.1 19.8 20.2 89 1.2 SSE 32 37 17 20 1020.5 - 0.0
27/09:00am 22.3 20.4 20.2 88 1.3 SSE 30 33 16 18 1020.3 1020.2 1.8
27/08:30am 22.3 20.0 20.2 88 1.4 SSE 32 35 17 19 1020.0 - 1.8
27/08:00am 22.2 19.9 20.5 90 1.1 SSE 33 39 18 21 1019.7 - 1.8
27/07:30am 22.0 19.9 20.5 91 1.0 SSE 32 35 17 19 1019.5 - 1.8
27/07:00am 21.9 19.8 20.5 92 0.9 SSE 32 37 17 20 1019.3 - 1.8
27/06:30am 21.3 21.2 19.9 92 0.9 SSE 20 24 11 13 1019.0 - 1.6
27/06:00am 21.4 20.8 19.7 90 1.1 SSE 22 28 12 15 1018.8 1018.7 0.4
27/05:30am 22.2 20.7 19.4 84 1.8 SSE 26 32 14 17 1018.7 - 0.0
27/05:00am 22.2 19.1 19.6 85 1.7 SSE 35 39 19 21 1018.4 - 0.0
27/04:30am 22.3 19.1 19.5 84 1.8 SSE 35 39 19 21 1018.4 - 0.0
27/04:00am 22.3 19.7 19.5 84 1.8 SSE 32 35 17 19 1018.4 - 0.0
27/03:30am 22.3 19.4 19.3 83 1.9 SSE 33 37 18 20 1018.5 - 0.0
27/03:00am 22.6 20.0 19.8 84 1.8 SSE 33 37 18 20 1018.7 1018.6 0.0
27/02:30am 22.6 20.4 19.6 83 1.9 SSE 30 35 16 19 1019.1 - 0.0
27/02:00am 22.7 20.0 19.7 83 1.9 SSE 33 39 18 21 1019.4 - 0.0
27/01:30am 22.6 20.6 19.9 85 1.7 SSE 30 33 16 18 1019.7 - 0.0
27/01:00am 22.6 20.1 20.1 86 1.6 SSE 33 39 18 21 1020.1 - 0.0
27/12:30am 22.7 18.8 19.5 82 2.0 SSE 39 44 21 24 1020.2 - 0.0
27/12:00am 22.6 20.5 19.8 84 1.8 SSE 30 33 16 18 1020.4 1020.3 0.0
 
Date/Time
EST
Temp
°C
App
Temp
°C
Dew
Point
Rel
Hum
%
Delta-T
°C
Wind Press
QNH
hPa
Press
MSL
hPa
Rain
since 9 am
mm
Dir
 
Spd
km/h
Gust
km/h
Spd
kts
Gust
kts
26/11:30pm 22.7 20.6 19.7 83 1.9 SSE 30 33 16 18 1020.7 - 0.0
26/11:00pm 22.7 20.2 19.7 83 1.9 SSE 32 35 17 19 1021.0 - 0.0
26/10:30pm 22.9 19.9 19.9 83 1.9 SSE 35 39 19 21 1021.0 - 0.0
26/10:00pm 22.9 19.2 19.9 83 1.9 SSE 39 46 21 25 1021.1 - 0.0
26/09:30pm 22.9 19.3 20.2 85 1.7 SSE 39 43 21 23 1021.2 - 0.0
26/09:00pm 22.9 19.3 20.2 85 1.7 SSE 39 44 21 24 1021.0 1020.9 0.0

Other Formats:

Comma delimited format used in spreadsheet applications
http://www.bom.gov.au/fwo/IDQ60801/IDQ60801.94285.axf

JavaScript Object Notation format (JSON) in row-major order
http://www.bom.gov.au/fwo/IDQ60801/IDQ60801.94285.json